createdAt,value
2023-04-24T00:01:55.322Z,3.90
2023-04-24T00:04:21.653Z,2.53
2023-04-24T00:06:54.139Z,1.97
2023-04-24T00:09:20.348Z,1.30
2023-04-24T00:11:46.476Z,1.70
2023-04-24T00:14:12.599Z,1.10
2023-04-24T00:16:38.885Z,1.30
2023-04-24T00:19:06.092Z,1.20
2023-04-24T00:21:32.853Z,1.23
2023-04-24T00:24:00.076Z,4.47
2023-04-24T00:26:26.230Z,1.10
2023-04-24T00:28:52.359Z,1.43
2023-04-24T00:31:19.329Z,3.23
2023-04-24T00:33:45.447Z,2.93
2023-04-24T00:36:11.553Z,4.73
2023-04-24T00:38:37.676Z,6.40
2023-04-24T00:41:04.675Z,1.57
2023-04-24T00:43:30.782Z,2.67
2023-04-24T00:45:57.228Z,2.50
2023-04-24T00:48:23.945Z,2.40
2023-04-24T00:50:50.221Z,2.00
2023-04-24T00:53:16.463Z,2.73
2023-04-24T00:55:42.803Z,1.87
2023-04-24T00:58:09.836Z,4.73
2023-04-24T01:00:36.248Z,1.63
2023-04-24T01:03:06.279Z,4.83
2023-04-24T01:05:32.719Z,3.07
2023-04-24T01:07:59.577Z,1.93
2023-04-24T01:10:26.203Z,1.83
2023-04-24T01:12:52.480Z,1.87
2023-04-24T01:15:19.529Z,1.40
2023-04-24T01:17:45.831Z,2.33
2023-04-24T01:20:12.231Z,1.60
2023-04-24T01:22:38.973Z,3.03
2023-04-24T01:25:06.101Z,4.87
2023-04-24T01:27:32.302Z,3.67
2023-04-24T01:29:58.555Z,3.37
2023-04-24T01:32:25.059Z,7.33
2023-04-24T01:34:51.387Z,6.53
2023-04-24T01:37:17.523Z,9.07
2023-04-24T01:39:44.540Z,9.03
2023-04-24T01:42:10.956Z,5.90
2023-04-24T01:44:37.214Z,5.23
2023-04-24T01:47:03.679Z,7.83
2023-04-24T01:49:30.064Z,8.27
2023-04-24T01:51:56.185Z,10.80
2023-04-24T01:54:22.421Z,12.50
2023-04-24T01:56:49.240Z,6.87
2023-04-24T01:59:16.285Z,7.57
2023-04-24T02:01:42.402Z,7.63
2023-04-24T02:04:09.275Z,8.37
2023-04-24T02:06:35.640Z,11.73
2023-04-24T02:09:03.067Z,7.13
2023-04-24T02:11:29.289Z,7.23
2023-04-24T02:13:56.028Z,6.83
2023-04-24T02:16:22.278Z,10.87
2023-04-24T02:18:48.491Z,10.90
2023-04-24T02:21:14.835Z,9.33
2023-04-24T02:23:40.958Z,10.70
2023-04-24T02:26:07.142Z,9.23
2023-04-24T02:28:33.330Z,10.37
2023-04-24T02:31:00.804Z,8.40
2023-04-24T02:33:26.902Z,10.37
2023-04-24T02:35:53.054Z,12.20
2023-04-24T02:38:19.249Z,13.13
2023-04-24T02:40:45.364Z,15.50
2023-04-24T02:43:11.475Z,15.53
2023-04-24T02:45:38.756Z,10.43
2023-04-24T02:48:05.764Z,11.73
2023-04-24T02:50:33.722Z,15.47
2023-04-24T02:52:59.982Z,12.33
2023-04-24T02:55:26.136Z,16.13
2023-04-24T02:57:52.242Z,13.93
2023-04-24T03:00:18.610Z,12.80
2023-04-24T03:02:45.805Z,12.57
2023-04-24T03:05:12.753Z,15.90
2023-04-24T03:07:38.929Z,13.97
2023-04-24T03:10:06.323Z,14.67
2023-04-24T03:12:32.583Z,18.07
2023-04-24T03:14:58.716Z,15.40
2023-04-24T03:17:25.093Z,12.40
2023-04-24T03:19:51.233Z,12.97
2023-04-24T03:22:17.964Z,13.80
2023-04-24T03:24:44.075Z,13.57
2023-04-24T03:27:10.235Z,13.07
2023-04-24T03:29:36.360Z,14.93
2023-04-24T03:32:02.567Z,12.13
2023-04-24T03:34:28.735Z,14.63
2023-04-24T03:36:54.894Z,11.30
2023-04-24T03:39:21.778Z,16.30
2023-04-24T03:41:47.888Z,17.80
2023-04-24T03:44:14.079Z,13.30
2023-04-24T03:46:40.270Z,10.20
2023-04-24T03:49:06.454Z,10.90
2023-04-24T03:51:32.615Z,16.57
2023-04-24T03:53:58.745Z,13.00
2023-04-24T03:56:25.522Z,13.47
2023-04-24T03:58:51.662Z,14.83
2023-04-24T04:01:18.970Z,13.43
2023-04-24T04:03:45.332Z,16.70
2023-04-24T04:06:13.214Z,10.20
2023-04-24T04:08:39.438Z,16.60
2023-04-24T04:11:05.671Z,18.97
2023-04-24T04:13:32.475Z,14.57
2023-04-24T04:15:58.671Z,14.73
2023-04-24T04:18:24.881Z,12.07
2023-04-24T04:20:51.067Z,13.63
2023-04-24T04:23:17.152Z,15.93
2023-04-24T04:25:43.335Z,14.97
2023-04-24T04:28:09.497Z,13.77
2023-04-24T04:30:38.487Z,14.67
2023-04-24T04:33:04.653Z,12.93
2023-04-24T04:35:30.792Z,14.03
2023-04-24T04:37:59.053Z,16.63
2023-04-24T04:40:25.461Z,13.43
2023-04-24T04:42:53.214Z,14.00
2023-04-24T04:45:20.725Z,15.83
2023-04-24T04:47:47.633Z,13.77
2023-04-24T04:50:14.179Z,14.17
2023-04-24T04:52:40.421Z,13.17
2023-04-24T04:55:07.976Z,14.57
2023-04-24T04:57:34.172Z,11.87
2023-04-24T05:00:00.365Z,11.97
2023-04-24T05:02:26.656Z,15.47
2023-04-24T05:04:53.730Z,10.13
2023-04-24T05:07:20.142Z,12.37
2023-04-24T05:09:46.354Z,12.50
2023-04-24T05:12:12.514Z,9.77
2023-04-24T05:14:38.662Z,13.20
2023-04-24T05:17:05.020Z,9.90
2023-04-24T05:19:33.159Z,10.50
2023-04-24T05:22:03.354Z,14.80
2023-04-24T05:24:29.552Z,7.27
2023-04-24T05:26:57.258Z,9.33
2023-04-24T05:29:23.446Z,15.67
2023-04-24T05:31:49.694Z,11.07
2023-04-24T05:34:16.951Z,12.07
2023-04-24T05:36:43.123Z,10.73
2023-04-24T05:39:10.008Z,10.43
2023-04-24T05:41:36.170Z,14.77
2023-04-24T05:44:02.329Z,11.13
2023-04-24T05:46:28.561Z,11.43
2023-04-24T05:48:54.938Z,12.10
2023-04-24T05:51:21.076Z,12.60
2023-04-24T05:53:47.247Z,17.80
2023-04-24T05:56:14.260Z,13.43
2023-04-24T05:58:40.942Z,13.80
2023-04-24T06:01:07.442Z,12.50
2023-04-24T06:03:33.670Z,11.00
2023-04-24T06:06:00.237Z,11.40
2023-04-24T06:08:26.462Z,20.37
2023-04-24T06:10:52.604Z,10.40
2023-04-24T06:13:19.438Z,13.77
2023-04-24T06:15:45.531Z,11.47
2023-04-24T06:18:12.725Z,10.90
2023-04-24T06:20:39.313Z,11.37
2023-04-24T06:23:05.466Z,10.53
2023-04-24T06:25:31.641Z,11.60
2023-04-24T06:27:58.020Z,10.10
2023-04-24T06:30:25.814Z,8.53
2023-04-24T06:32:52.017Z,9.53
2023-04-24T06:35:18.416Z,9.77
2023-04-24T06:37:44.775Z,12.80
2023-04-24T06:40:11.380Z,8.30
2023-04-24T06:42:37.631Z,9.70
2023-04-24T06:45:05.298Z,10.27
2023-04-24T06:47:32.133Z,8.53
2023-04-24T06:49:58.296Z,10.17
2023-04-24T06:52:24.429Z,9.93
2023-04-24T06:54:50.582Z,9.90
2023-04-24T06:57:16.687Z,6.93
2023-04-24T06:59:43.391Z,7.73
2023-04-24T07:02:09.816Z,10.77
2023-04-24T07:04:36.995Z,11.93
2023-04-24T07:07:04.845Z,11.43
2023-04-24T07:09:30.962Z,7.70
2023-04-24T07:11:57.115Z,8.57
2023-04-24T07:14:23.672Z,8.37
2023-04-24T07:16:50.028Z,6.33
2023-04-24T07:19:16.178Z,6.17
2023-04-24T07:21:43.061Z,6.37
2023-04-24T07:24:10.964Z,6.00
2023-04-24T07:26:37.775Z,5.40
2023-04-24T07:29:03.897Z,6.40
2023-04-24T07:31:30.374Z,4.17
2023-04-24T07:33:58.376Z,3.20
2023-04-24T07:36:26.129Z,2.13
2023-04-24T07:38:52.912Z,2.40
2023-04-24T07:41:19.042Z,1.60
2023-04-24T07:43:45.949Z,6.93
2023-04-24T07:46:12.166Z,0.90
2023-04-24T07:48:38.339Z,2.13
2023-04-24T07:51:04.483Z,1.70
2023-04-24T07:53:30.641Z,0.50
2023-04-24T07:55:57.430Z,0.60
2023-04-24T07:58:23.583Z,1.53
2023-04-24T08:00:49.815Z,0.87
2023-04-24T08:03:18.987Z,2.47
2023-04-24T08:05:45.313Z,2.13
2023-04-24T08:08:11.535Z,2.70
2023-04-24T08:10:37.654Z,0.60
2023-04-24T08:13:04.426Z,1.27
2023-04-24T08:15:30.561Z,0.60
2023-04-24T08:17:59.089Z,0.97
2023-04-24T08:20:25.479Z,2.23
2023-04-24T08:22:51.709Z,2.60
2023-04-24T08:25:18.734Z,1.57
2023-04-24T08:27:45.003Z,5.30
2023-04-24T08:30:12.354Z,2.30
2023-04-24T08:32:38.629Z,3.53
2023-04-24T08:35:05.464Z,3.40
2023-04-24T08:37:31.602Z,7.60
2023-04-24T08:39:57.755Z,7.07
2023-04-24T08:42:24.495Z,3.73
2023-04-24T08:44:50.671Z,6.30
2023-04-24T08:47:17.687Z,6.07
2023-04-24T08:49:45.679Z,3.77
2023-04-24T08:52:13.314Z,6.30
2023-04-24T08:54:40.549Z,7.33
2023-04-24T08:57:08.187Z,4.37
2023-04-24T08:59:34.486Z,4.40
2023-04-24T09:02:00.856Z,7.83
2023-04-24T09:04:29.233Z,6.60
2023-04-24T09:06:57.872Z,4.87
2023-04-24T09:09:24.356Z,5.57
2023-04-24T09:11:50.900Z,3.37
2023-04-24T09:14:17.386Z,3.20
2023-04-24T09:16:43.968Z,7.57
2023-04-24T09:19:10.236Z,5.60
2023-04-24T09:21:37.048Z,5.33
2023-04-24T09:24:05.790Z,6.33
2023-04-24T09:26:32.944Z,5.70
2023-04-24T09:28:59.764Z,7.00
2023-04-24T09:31:28.272Z,6.33
2023-04-24T09:33:55.133Z,7.50
2023-04-24T09:36:27.659Z,3.93
2023-04-24T09:38:58.608Z,3.67
2023-04-24T09:41:24.848Z,4.33
2023-04-24T09:43:50.986Z,4.77
2023-04-24T09:46:19.094Z,5.53
2023-04-24T09:48:45.314Z,10.90
2023-04-24T09:51:12.445Z,6.33
2023-04-24T09:53:39.466Z,13.17
2023-04-24T09:56:09.229Z,6.33
2023-04-24T09:58:36.571Z,10.87
2023-04-24T10:01:02.906Z,11.47
2023-04-24T10:03:30.957Z,8.27
2023-04-24T10:05:59.529Z,7.73
2023-04-24T10:08:26.428Z,14.73
2023-04-24T10:10:52.942Z,10.40
2023-04-24T10:13:19.874Z,9.20
2023-04-24T10:15:47.222Z,12.23
2023-04-24T10:18:13.452Z,14.53
2023-04-24T10:20:40.969Z,12.77
2023-04-24T10:23:07.395Z,11.40
2023-04-24T10:25:34.734Z,13.67
2023-04-24T10:28:01.847Z,12.90
2023-04-24T10:30:30.236Z,12.33
2023-04-24T10:32:56.568Z,11.47
2023-04-24T10:35:26.853Z,10.07
2023-04-24T10:37:57.055Z,18.07
2023-04-24T10:40:27.383Z,12.10
2023-04-24T10:42:53.776Z,13.70
2023-04-24T10:45:22.213Z,19.10
2023-04-24T10:47:59.421Z,22.83
2023-04-24T10:50:27.282Z,12.10
2023-04-24T10:52:54.912Z,16.63
2023-04-24T10:55:45.856Z,15.00
2023-04-24T10:58:12.198Z,11.10
2023-04-24T11:00:39.406Z,13.33
2023-04-24T11:03:07.026Z,14.50
2023-04-24T11:05:52.353Z,16.03
2023-04-24T11:08:24.016Z,12.20
2023-04-24T11:10:56.756Z,16.20
2023-04-24T11:13:23.450Z,18.00
2023-04-24T11:16:13.988Z,11.27
2023-04-24T11:18:45.417Z,11.93
2023-04-24T11:21:12.581Z,13.50
2023-04-24T11:23:38.913Z,11.77
2023-04-24T11:26:18.271Z,12.77
2023-04-24T11:28:47.968Z,15.37
2023-04-24T11:31:39.812Z,18.27
2023-04-24T11:34:08.469Z,13.93
2023-04-24T11:36:35.554Z,17.67
2023-04-24T11:39:01.765Z,13.10
2023-04-24T11:41:28.726Z,12.10
2023-04-24T11:46:21.738Z,14.30
2023-04-24T11:48:47.946Z,11.17
2023-04-24T11:51:14.832Z,14.60
2023-04-24T11:53:41.149Z,11.90
2023-04-24T11:56:10.021Z,18.23
2023-04-24T11:58:36.530Z,15.37
2023-04-24T12:01:03.028Z,13.93
2023-04-24T12:03:29.481Z,11.07
2023-04-24T12:06:06.243Z,9.43
2023-04-24T12:08:33.082Z,13.87
2023-04-24T12:11:01.229Z,17.13
2023-04-24T12:13:27.505Z,9.50
2023-04-24T12:15:53.893Z,12.13
2023-04-24T12:18:22.965Z,14.17
2023-04-24T12:20:49.226Z,9.80
2023-04-24T12:23:15.528Z,11.60
2023-04-24T12:25:42.289Z,10.50
2023-04-24T12:28:12.710Z,14.83
2023-04-24T12:30:41.348Z,9.50
2023-04-24T12:33:07.567Z,9.67
2023-04-24T12:35:35.687Z,8.20
2023-04-24T12:38:10.558Z,9.37
2023-04-24T12:40:36.657Z,6.13
2023-04-24T12:43:13.946Z,6.20
2023-04-24T12:45:41.012Z,4.87
2023-04-24T12:48:07.133Z,3.83
2023-04-24T12:50:33.312Z,4.07
2023-04-24T12:52:59.431Z,8.00
2023-04-24T12:55:25.571Z,5.90
2023-04-24T12:57:52.102Z,2.27
2023-04-24T13:00:20.286Z,2.23
2023-04-24T13:02:46.796Z,3.77
2023-04-24T13:05:14.041Z,5.57
2023-04-24T13:07:40.390Z,4.13
2023-04-24T13:10:07.698Z,3.73
2023-04-24T13:12:33.951Z,7.97
2023-04-24T13:15:00.092Z,3.97
2023-04-24T13:17:26.989Z,5.10
2023-04-24T13:19:55.439Z,2.40
2023-04-24T13:22:21.767Z,6.87
2023-04-24T13:24:49.476Z,3.47
2023-04-24T13:27:15.964Z,4.57
2023-04-24T13:29:42.157Z,1.97
2023-04-24T13:32:08.520Z,3.80
2023-04-24T13:34:35.447Z,7.43
2023-04-24T13:37:03.803Z,8.00
2023-04-24T13:39:30.181Z,4.23
2023-04-24T13:41:56.359Z,6.43
2023-04-24T13:44:23.704Z,4.03
2023-04-24T13:46:52.476Z,3.20
2023-04-24T13:49:19.007Z,5.93
2023-04-24T13:51:46.227Z,5.07
2023-04-24T13:54:12.370Z,2.77
2023-04-24T13:56:39.384Z,3.33
2023-04-24T13:59:05.829Z,3.60
2023-04-24T14:01:32.024Z,4.13
2023-04-24T14:03:58.367Z,6.47
2023-04-24T14:06:24.749Z,2.53
2023-04-24T14:08:51.679Z,8.13
2023-04-24T14:11:18.412Z,9.17
2023-04-24T14:13:45.608Z,5.27
2023-04-24T14:16:12.468Z,6.00
2023-04-24T14:18:38.715Z,3.43
2023-04-24T14:21:05.517Z,4.63
2023-04-24T14:23:31.649Z,9.93
2023-04-24T14:25:58.784Z,8.97
2023-04-24T14:28:25.637Z,3.87
2023-04-24T14:30:51.820Z,4.97
2023-04-24T14:33:18.285Z,2.87
2023-04-24T14:35:44.663Z,1.97
2023-04-24T14:38:10.923Z,2.80
2023-04-24T14:41:04.837Z,3.87
2023-04-24T14:43:24.404Z,3.03
2023-04-24T14:45:50.551Z,5.17
2023-04-24T14:48:17.895Z,2.27
2023-04-24T14:50:44.196Z,4.77
2023-04-24T14:53:10.559Z,1.93
2023-04-24T14:55:36.904Z,5.33
2023-04-24T14:58:03.722Z,4.50
2023-04-24T15:00:30.728Z,1.60
2023-04-24T15:02:57.085Z,8.37
2023-04-24T15:05:25.271Z,1.47
2023-04-24T15:07:51.651Z,5.20
2023-04-24T15:10:18.019Z,3.87
2023-04-24T15:12:44.418Z,5.70
2023-04-24T15:15:10.826Z,5.03
2023-04-24T15:17:37.615Z,5.93
2023-04-24T15:20:06.574Z,3.03
2023-04-24T15:22:32.869Z,2.67
2023-04-24T15:24:59.141Z,4.13
2023-04-24T15:27:25.384Z,3.93
2023-04-24T15:29:51.550Z,7.20
2023-04-24T15:32:17.951Z,6.93
2023-04-24T15:34:45.917Z,3.50
2023-04-24T15:37:12.159Z,2.83
2023-04-24T15:39:38.442Z,3.70
2023-04-24T15:42:04.778Z,3.13
2023-04-24T15:44:30.919Z,6.33
2023-04-24T15:46:57.127Z,5.50
2023-04-24T15:49:23.308Z,6.47
2023-04-24T15:51:50.120Z,4.13
2023-04-24T15:54:16.252Z,7.30
2023-04-24T15:56:43.819Z,6.73
2023-04-24T15:59:10.120Z,4.00
2023-04-24T16:01:36.352Z,3.37
2023-04-24T16:04:02.731Z,2.00
2023-04-24T16:06:28.973Z,8.63
2023-04-24T16:08:58.123Z,4.03
2023-04-24T16:11:25.863Z,2.90
2023-04-24T16:13:52.036Z,3.47
2023-04-24T16:16:18.383Z,4.33
2023-04-24T16:18:44.606Z,2.63
2023-04-24T16:21:10.873Z,5.67
2023-04-24T16:23:37.131Z,2.97
2023-04-24T16:26:04.139Z,1.70
2023-04-24T16:28:30.528Z,3.37
2023-04-24T16:30:56.948Z,3.17
2023-04-24T16:33:25.534Z,4.17
2023-04-24T16:35:51.701Z,3.87
2023-04-24T16:38:18.113Z,4.33
2023-04-24T16:40:45.148Z,1.60
2023-04-24T16:43:12.095Z,7.10
2023-04-24T16:45:38.276Z,3.07
2023-04-24T16:48:04.681Z,5.20
2023-04-24T16:50:30.937Z,6.57
2023-04-24T16:52:57.353Z,6.63
2023-04-24T16:55:24.478Z,3.70
2023-04-24T16:57:50.592Z,3.37
2023-04-24T17:00:18.012Z,4.17
2023-04-24T17:02:47.793Z,4.23
2023-04-24T17:05:14.343Z,1.90
2023-04-24T17:07:40.533Z,3.50
2023-04-24T17:10:08.311Z,4.47
2023-04-24T17:12:34.578Z,4.57
2023-04-24T17:15:00.770Z,5.83
2023-04-24T17:17:27.740Z,5.90
2023-04-24T17:19:53.940Z,5.50
2023-04-24T17:22:20.114Z,2.63
2023-04-24T17:24:46.554Z,4.70
2023-04-24T17:27:15.249Z,5.83
2023-04-24T17:29:42.212Z,3.23
2023-04-24T17:32:08.545Z,4.63
2023-04-24T17:34:35.741Z,1.97
2023-04-24T17:37:03.387Z,2.70
2023-04-24T17:39:29.529Z,9.47
2023-04-24T17:41:55.777Z,6.73
2023-04-24T17:44:22.074Z,7.17
2023-04-24T17:46:48.307Z,3.50
2023-04-24T17:49:15.284Z,4.27
2023-04-24T17:51:42.025Z,3.57
2023-04-24T17:54:08.183Z,3.23
2023-04-24T17:56:34.489Z,2.30
2023-04-24T17:59:01.078Z,5.43
2023-04-24T18:01:28.372Z,2.83
2023-04-24T18:03:54.952Z,6.17
2023-04-24T18:06:21.295Z,6.37
2023-04-24T18:08:48.521Z,4.27
2023-04-24T18:11:14.969Z,2.23
2023-04-24T18:13:41.145Z,2.37
2023-04-24T18:16:07.741Z,5.33
2023-04-24T18:18:34.025Z,3.03
2023-04-24T18:21:00.217Z,3.30
2023-04-24T18:23:26.537Z,3.93
2023-04-24T18:25:53.461Z,2.67
2023-04-24T18:28:19.564Z,7.60
2023-04-24T18:30:45.891Z,3.93
2023-04-24T18:33:12.025Z,4.20
2023-04-24T18:35:38.657Z,3.23
2023-04-24T18:38:04.800Z,4.73
2023-04-24T18:40:31.070Z,4.17
2023-04-24T18:42:58.211Z,6.20
2023-04-24T18:45:24.498Z,5.63
2023-04-24T18:47:50.969Z,3.97
2023-04-24T18:50:18.513Z,5.63
2023-04-24T18:52:44.870Z,5.53
2023-04-24T18:55:11.211Z,5.10
2023-04-24T18:57:37.360Z,4.30
2023-04-24T19:00:05.618Z,4.73
2023-04-24T19:02:32.533Z,9.10
2023-04-24T19:04:58.704Z,5.43
2023-04-24T19:07:24.933Z,5.00
2023-04-24T19:09:51.087Z,4.67
2023-04-24T19:12:17.469Z,5.03
2023-04-24T19:14:43.648Z,5.77
2023-04-24T19:17:10.428Z,3.90
2023-04-24T19:19:36.563Z,8.67
2023-04-24T19:22:03.071Z,5.93
2023-04-24T19:24:32.294Z,6.00
2023-04-24T19:26:58.553Z,9.20
2023-04-24T19:29:24.780Z,8.33
2023-04-24T19:31:53.612Z,6.03
2023-04-24T19:34:20.592Z,7.10
2023-04-24T19:36:46.738Z,3.93
2023-04-24T19:39:12.947Z,9.30
2023-04-24T19:41:39.109Z,5.17
2023-04-24T19:44:05.565Z,5.33
2023-04-24T19:46:32.314Z,6.20
2023-04-24T19:48:58.556Z,7.33
2023-04-24T19:51:25.470Z,7.00
2023-04-24T19:53:51.951Z,11.20
2023-04-24T19:56:18.067Z,5.80
2023-04-24T19:58:44.198Z,6.33
2023-04-24T20:01:10.451Z,8.33
2023-04-24T20:03:36.950Z,5.63
2023-04-24T20:06:03.691Z,5.63
2023-04-24T20:08:30.504Z,8.00
2023-04-24T20:10:57.402Z,7.70
2023-04-24T20:13:24.049Z,11.07
2023-04-24T20:15:50.219Z,12.37
2023-04-24T20:18:16.433Z,9.27
2023-04-24T20:20:42.705Z,9.90
2023-04-24T20:23:08.865Z,5.87
2023-04-24T20:25:35.772Z,9.60
2023-04-24T20:28:01.982Z,5.93
2023-04-24T20:30:28.135Z,10.23
2023-04-24T20:32:54.312Z,6.17
2023-04-24T20:35:20.474Z,6.17
2023-04-24T20:37:47.027Z,7.70
2023-04-24T20:40:13.488Z,9.73
2023-04-24T20:42:40.322Z,6.60
2023-04-24T20:45:07.498Z,7.30
2023-04-24T20:47:34.026Z,7.43
2023-04-24T20:50:02.088Z,9.50
2023-04-24T20:52:28.746Z,7.00
2023-04-24T20:54:55.001Z,8.07
2023-04-24T20:57:21.154Z,8.33
2023-04-24T20:59:47.965Z,9.37
2023-04-24T21:02:14.266Z,12.10
2023-04-24T21:04:40.668Z,8.67
2023-04-24T21:07:08.566Z,10.67
2023-04-24T21:09:34.866Z,13.80
2023-04-24T21:12:02.062Z,6.57
2023-04-24T21:14:28.543Z,6.97
2023-04-24T21:16:57.657Z,7.27
2023-04-24T21:19:24.105Z,7.40
2023-04-24T21:21:50.247Z,12.33
2023-04-24T21:24:16.510Z,7.27
2023-04-24T21:26:42.622Z,9.67
2023-04-24T21:29:08.778Z,5.80
2023-04-24T21:31:34.951Z,6.97
2023-04-24T21:34:01.757Z,14.07
2023-04-24T21:36:28.258Z,7.37
2023-04-24T21:38:54.894Z,10.27
2023-04-24T21:41:21.010Z,10.47
2023-04-24T21:43:48.408Z,8.57
2023-04-24T21:46:16.691Z,10.20
2023-04-24T21:48:42.846Z,6.43
2023-04-24T21:51:09.969Z,11.03
2023-04-24T21:53:36.087Z,14.37
2023-04-24T21:56:02.258Z,10.27
2023-04-24T21:58:28.540Z,10.93
2023-04-24T22:00:54.694Z,12.43
2023-04-24T22:03:20.954Z,7.60
2023-04-24T22:05:47.250Z,12.40
2023-04-24T22:08:13.979Z,15.20
2023-04-24T22:10:40.317Z,11.53
2023-04-24T22:13:06.491Z,16.03
2023-04-24T22:15:32.710Z,12.33
2023-04-24T22:18:00.455Z,14.47
2023-04-24T22:20:26.661Z,9.07
2023-04-24T22:22:52.769Z,11.90
2023-04-24T22:25:19.646Z,12.17
2023-04-24T22:27:45.876Z,11.37
2023-04-24T22:30:12.515Z,10.90
2023-04-24T22:32:38.722Z,13.93
2023-04-24T22:35:05.605Z,16.43
2023-04-24T22:37:31.727Z,16.20
2023-04-24T22:39:59.182Z,10.90
2023-04-24T22:42:26.090Z,10.97
2023-04-24T22:44:52.304Z,14.27
2023-04-24T22:47:19.205Z,11.33
2023-04-24T22:49:45.626Z,12.63
2023-04-24T22:52:13.691Z,15.20
2023-04-24T22:54:39.818Z,11.70
2023-04-24T22:57:05.957Z,10.73
2023-04-24T22:59:32.714Z,17.23
2023-04-24T23:01:58.921Z,16.00
2023-04-24T23:04:25.523Z,16.80
2023-04-24T23:06:51.706Z,12.27
2023-04-24T23:09:17.811Z,9.03
2023-04-24T23:11:43.954Z,15.53
2023-04-24T23:14:10.085Z,16.20
2023-04-24T23:16:38.019Z,23.67
2023-04-24T23:19:04.316Z,16.03
2023-04-24T23:21:31.334Z,9.97
2023-04-24T23:23:57.630Z,24.40
2023-04-24T23:26:23.768Z,16.07
2023-04-24T23:28:49.893Z,12.87
2023-04-24T23:31:16.031Z,19.93
2023-04-24T23:33:42.754Z,16.77
2023-04-24T23:36:09.200Z,12.63
2023-04-24T23:38:46.691Z,18.83
2023-04-24T23:41:16.125Z,13.97
2023-04-24T23:43:42.393Z,15.00
2023-04-24T23:46:08.560Z,19.07
2023-04-24T23:48:36.211Z,19.53
2023-04-24T23:51:03.051Z,19.93
2023-04-24T23:53:29.370Z,10.93
2023-04-24T23:55:55.607Z,14.60
2023-04-24T23:58:21.714Z,11.07
